• Join FlightAware (Why Join?)
  • Login
  • US Flag 
09:01AM EST


 

Airport Tracker/Info


-or-


 

Live Flight TrackerFlight Track Log ✈ UAL4846 ✈ 22-Apr-2013 ✈ KEWR - KPVD

Flight Track Log - Related Links

Times and Time Zones

All times are in EDT time to prevent confusion due to time zone crossing. See the UAL4846 flight status page for this flight to view local times or setup timezone preferences in your user account.

Time Position Orientation Groundspeed Altitude Reporting Facility
EDT Latitude Longitude Course Direction KTS MPH feet Rate Location/Type
12:05PM 40.8470 -73.7741 63° Northeast  Level Estimated
12:06PM 40.8727 -73.7082 63° Northeast  Level Estimated
12:07PM 40.8983 -73.6422 63° Northeast  Level Estimated
12:08PM 40.9238 -73.5761 63° Northeast  Level Estimated
12:09PM 40.9493 -73.5101 63° Northeast  Level Estimated
12:10PM 40.9748 -73.4439 63° Northeast  Level Estimated
12:11PM 41.0003 -73.3777 63° Northeast  Level Estimated
12:12PM 41.0257 -73.3115 63° Northeast  Level Estimated
12:13PM 41.0510 -73.2452 63° Northeast  Level Estimated
12:14PM 41.0763 -73.1789 63° Northeast  Level Estimated
12:15PM 41.1016 -73.1125 63° Northeast  Level Estimated
12:16PM 41.1269 -73.0460 63° Northeast  Level Estimated
12:17PM 41.1521 -72.9795 63° Northeast  Level Estimated
12:18PM 41.1772 -72.9130 63° Northeast  Level Estimated
12:19PM 41.2024 -72.8464 63° Northeast  Level Estimated
12:20PM 41.2275 -72.7797 63° Northeast  Level Estimated
12:21PM 41.2525 -72.7130 63° Northeast  Level Estimated
12:22PM 41.2776 -72.6463 63° Northeast  Level Estimated
12:23PM 41.3025 -72.5795 64° Northeast  Level Estimated
12:24PM 41.3275 -72.5126 64° Northeast  Level Estimated
12:25PM 41.3524 -72.4457 64° Northeast  Level Estimated
12:26PM 41.3772 -72.3787 64° Northeast  Level Estimated
12:27PM 41.4021 -72.3117 64° Northeast  Level Estimated
12:28PM 41.4269 -72.2447 64° Northeast  Level Estimated
12:29PM 41.4516 -72.1776 64° Northeast  Level Estimated
12:30PM 41.4763 -72.1104 64° Northeast  Level Estimated
12:31PM 41.5010 -72.0432 64° Northeast  Level Estimated
12:32PM 41.5256 -71.9759 64° Northeast  Level Estimated
12:33PM 41.5502 -71.9086 64° Northeast  Level Estimated
12:34PM 41.5748 -71.8412 64° Northeast  Level Estimated
12:35PM 41.5993 -71.7738 64° Northeast  Level Estimated
12:36PM 41.6237 -71.7063 64° Northeast  Level Estimated
12:37PM 41.6482 -71.6388 64° Northeast  Level Estimated
12:38PM 41.6726 -71.5712 64° Northeast  Level Estimated
12:39PM 41.6969 -71.5036 64° Northeast  Level Estimated
12:40PM 41.7212 -71.4360 64° Northeast  Level Estimated
12:41PM 41.7240 -71.4282 64° Northeast  Level Estimated
12:42PM 41.7240 -71.4282 226° Southwest  Level Estimated
12:43PM 41.7240 -71.4282 226° Southwest  Level Estimated
12:44PM 41.7240 -71.4282 226° Southwest  Level Estimated
12:45PM 41.7240 -71.4282 226° Southwest  Level Estimated
12:46PM 41.7240 -71.4282 226° Southwest  Level Estimated
12:47PM 41.7240 -71.4282 226° Southwest  Level Estimated
12:48PM 41.7240 -71.4282 226° Southwest  Level Estimated
12:49PM 41.7240 -71.4282 226° Southwest  Level Estimated
12:50PM 41.7240 -71.4282 226° Southwest  Level Estimated
12:51PM 41.7240 -71.4282 226° Southwest  Level Estimated
12:52PM 41.7240 -71.4282 226° Southwest  Level Estimated
12:53PM 41.7240 -71.4282 226° Southwest  Level Estimated
12:54PM 41.7240 -71.4282 226° Southwest  Level Estimated
12:55PM 41.7240 -71.4282 226° Southwest  Level Estimated
12:56PM 41.7240 -71.4282 226° Southwest  Level Estimated